Eureka, AK

1:32 AM AKDT on August 31, 2014 (GMT -0800)
Eureka | Change Station
CLOSE
Current Station
Airport
Location: Eureka,
Elevation: 3287 ft
Nearby Weather Stations

Elev 3287 ft 61.93 °N, 147.17 °W | Updated 16 minutes ago

Clear
Clear
39 °F
Feels Like 36 °F
N
5
Wind Variable Wind from West

Today
High -- | Low -- °F
--% Chance of Precip.
Yesterday
High -- | Low -- °F
Precip. -- in
6:36 AM 8:59 PM
Waxing Crescent, 29% visible
Pressure 29.56 in
Visibility 10.0 miles
Clouds Clear
Windchill 36 °F
Dew Point 34 °F
Humidity 81%
Rainfall 0.00 in
Snow Depth Not available.
UV 0 out of 12
Pollen Not available.
Air Quality Not available.
Flu Activity Not available.
METAR PAZK 310916Z AUTO 27004KT 10SM CLR 04/01 A2956 RMK AO1

More Conditions Fewer Conditions

Pressure 29.56 in
Visibility 10.0 miles
Clouds Clear
Windchill 36 °F
Dew Point 34 °F
Humidity 81%
Rainfall 0.00 in
Snow Depth Not available.
UV 0 out of 12
Pollen Not available.
Air Quality Not available.
Flu Activity Not available.
METAR PAZK 310916Z AUTO 27004KT 10SM CLR 04/01 A2956 RMK AO1

More Conditions Fewer Conditions

10-Day Weather Forecast

Almanac

Astronomy

Aug. 31, 2014 Rise Set
Actual Time 6:36 AM AKDT 8:59 PM AKDT
Civil Twilight 5:47 AM AKDT 9:48 PM AKDT
Nautical Twilight 4:41 AM AKDT 10:52 PM AKDT
Astronomical Twilight 3:03 AM AKDT 12:26 AM AKDT
Moon 2:24 PM AKDT 10:26 PM AKDT
Length of Visible Light 16h 00m
Length of Day
14h 23m
Tomorrow will be 5m 51s shorter.
Waxing Crescent, 29% of the Moon is Illuminated
Today
Waxing Crescent
Sep 2
First Quarter
Sep 8
Full
Sep 15
Last Quarter
Sep 24
New

Today's Extremes

State Highs State Lows

Community

WunderPhotos

Upload Photos

1,748,834 photos uploaded!

Nearby

Snow Depth

Station Depth Elevation
Moraine 0 in 2100 ft
Upper Tsaina River 0 in 1750 ft
Susitna Valley High 2 in 375 ft
Indian Pass 1 in 2300 ft
Point Mackenzie 1 in 200 ft

Earthquake Activity

City Distance Mag. Time & Date
No recent earthquake activity has been reported nearby.
Minimum magnitude displayed is 2.5.

Coastal Water Temperatures

Place Temperature
No Stations Reporting

Nearby Weather Stations